sensor_id;sensor_type;location;lat;lon;timestamp;pressure;altitude;pressure_sealevel;temperature;humidity
12793;BME280;6460;42.684;23.260;2022-11-15T00:02:21;95170.78;;;6.22;100.00
12793;BME280;6460;42.684;23.260;2022-11-15T00:04:48;95170.44;;;6.32;100.00
12793;BME280;6460;42.684;23.260;2022-11-15T00:07:16;95163.84;;;6.21;100.00
12793;BME280;6460;42.684;23.260;2022-11-15T00:09:44;95162.44;;;6.32;100.00
12793;BME280;6460;42.684;23.260;2022-11-15T00:12:11;95166.06;;;6.27;100.00
12793;BME280;6460;42.684;23.260;2022-11-15T00:14:38;95169.34;;;6.42;100.00
12793;BME280;6460;42.684;23.260;2022-11-15T00:17:05;95159.00;;;6.31;100.00
12793;BME280;6460;42.684;23.260;2022-11-15T00:19:32;95156.00;;;6.33;100.00
12793;BME280;6460;42.684;23.260;2022-11-15T00:22:00;95156.63;;;6.21;100.00
12793;BME280;6460;42.684;23.260;2022-11-15T00:24:27;95152.22;;;6.08;100.00
12793;BME280;6460;42.684;23.260;2022-11-15T00:26:56;95157.88;;;6.15;100.00
12793;BME280;6460;42.684;23.260;2022-11-15T00:29:23;95146.88;;;6.08;100.00
12793;BME280;6460;42.684;23.260;2022-11-15T00:31:50;95150.16;;;5.88;100.00
12793;BME280;6460;42.684;23.260;2022-11-15T00:34:18;95146.63;;;5.70;100.00
12793;BME280;6460;42.684;23.260;2022-11-15T00:36:45;95147.66;;;5.44;100.00
12793;BME280;6460;42.684;23.260;2022-11-15T00:39:12;95152.75;;;5.71;100.00
12793;BME280;6460;42.684;23.260;2022-11-15T00:41:40;95144.63;;;5.37;100.00
12793;BME280;6460;42.684;23.260;2022-11-15T00:44:08;95151.69;;;4.71;100.00
12793;BME280;6460;42.684;23.260;2022-11-15T00:46:35;95144.81;;;5.01;100.00
12793;BME280;6460;42.684;23.260;2022-11-15T00:49:03;95142.25;;;5.26;100.00
12793;BME280;6460;42.684;23.260;2022-11-15T00:51:30;95141.03;;;5.32;100.00
12793;BME280;6460;42.684;23.260;2022-11-15T00:53:57;95138.84;;;5.34;100.00
12793;BME280;6460;42.684;23.260;2022-11-15T00:56:24;95142.50;;;5.47;100.00
12793;BME280;6460;42.684;23.260;2022-11-15T00:58:52;95139.84;;;5.56;100.00
12793;BME280;6460;42.684;23.260;2022-11-15T01:01:21;95141.97;;;5.37;100.00
12793;BME280;6460;42.684;23.260;2022-11-15T01:03:48;95135.84;;;5.36;100.00
12793;BME280;6460;42.684;23.260;2022-11-15T01:06:15;95132.72;;;5.34;100.00
12793;BME280;6460;42.684;23.260;2022-11-15T01:08:42;95126.03;;;5.54;100.00
12793;BME280;6460;42.684;23.260;2022-11-15T01:11:11;95136.09;;;5.57;100.00
12793;BME280;6460;42.684;23.260;2022-11-15T01:13:39;95131.38;;;5.54;100.00
12793;BME280;6460;42.684;23.260;2022-11-15T01:16:08;95134.03;;;5.54;100.00
12793;BME280;6460;42.684;23.260;2022-11-15T01:18:36;95138.56;;;5.45;100.00
12793;BME280;6460;42.684;23.260;2022-11-15T01:21:08;95132.06;;;5.20;100.00
12793;BME280;6460;42.684;23.260;2022-11-15T01:23:35;95124.63;;;5.56;100.00
12793;BME280;6460;42.684;23.260;2022-11-15T01:26:04;95132.34;;;5.66;100.00
12793;BME280;6460;42.684;23.260;2022-11-15T01:28:33;95132.81;;;5.68;100.00
12793;BME280;6460;42.684;23.260;2022-11-15T01:31:03;95128.88;;;5.66;100.00
12793;BME280;6460;42.684;23.260;2022-11-15T01:33:30;95134.03;;;5.54;100.00
12793;BME280;6460;42.684;23.260;2022-11-15T01:36:03;95130.13;;;5.60;100.00
12793;BME280;6460;42.684;23.260;2022-11-15T01:38:30;95126.34;;;5.52;100.00
12793;BME280;6460;42.684;23.260;2022-11-15T01:40:58;95123.97;;;5.42;100.00
12793;BME280;6460;42.684;23.260;2022-11-15T01:43:26;95114.41;;;5.50;100.00
12793;BME280;6460;42.684;23.260;2022-11-15T01:45:56;95113.50;;;5.63;100.00
12793;BME280;6460;42.684;23.260;2022-11-15T01:48:30;95121.19;;;5.56;100.00
12793;BME280;6460;42.684;23.260;2022-11-15T01:51:01;95117.88;;;5.59;100.00
12793;BME280;6460;42.684;23.260;2022-11-15T01:53:29;95119.41;;;5.43;100.00
12793;BME280;6460;42.684;23.260;2022-11-15T01:56:01;95115.06;;;5.55;100.00
12793;BME280;6460;42.684;23.260;2022-11-15T01:58:29;95113.19;;;5.56;100.00
12793;BME280;6460;42.684;23.260;2022-11-15T02:00:56;95114.19;;;5.77;100.00
12793;BME280;6460;42.684;23.260;2022-11-15T02:03:26;95118.84;;;5.71;100.00
12793;BME280;6460;42.684;23.260;2022-11-15T02:05:57;95118.09;;;5.79;100.00
12793;BME280;6460;42.684;23.260;2022-11-15T02:08:27;95118.09;;;5.79;100.00
12793;BME280;6460;42.684;23.260;2022-11-15T02:10:54;95110.09;;;5.71;100.00
12793;BME280;6460;42.684;23.260;2022-11-15T02:13:21;95114.94;;;5.69;100.00
12793;BME280;6460;42.684;23.260;2022-11-15T02:15:55;95115.44;;;5.71;100.00
12793;BME280;6460;42.684;23.260;2022-11-15T02:18:28;95107.91;;;5.73;100.00
12793;BME280;6460;42.684;23.260;2022-11-15T02:21:10;95116.34;;;5.66;100.00
12793;BME280;6460;42.684;23.260;2022-11-15T02:24:03;95116.50;;;5.61;100.00
12793;BME280;6460;42.684;23.260;2022-11-15T02:30:01;95109.09;;;5.50;100.00
12793;BME280;6460;42.684;23.260;2022-11-15T02:32:36;95109.34;;;5.31;100.00
12793;BME280;6460;42.684;23.260;2022-11-15T02:35:16;95106.69;;;5.40;100.00
12793;BME280;6460;42.684;23.260;2022-11-15T02:37:51;95108.44;;;4.96;100.00
12793;BME280;6460;42.684;23.260;2022-11-15T02:40:26;95108.19;;;5.15;100.00
12793;BME280;6460;42.684;23.260;2022-11-15T02:43:00;95104.81;;;4.92;100.00
12793;BME280;6460;42.684;23.260;2022-11-15T02:45:50;95109.94;;;4.89;100.00
12793;BME280;6460;42.684;23.260;2022-11-15T02:48:21;95109.41;;;5.00;100.00
12793;BME280;6460;42.684;23.260;2022-11-15T02:50:50;95109.94;;;5.19;100.00
12793;BME280;6460;42.684;23.260;2022-11-15T02:53:23;95103.03;;;5.18;100.00
12793;BME280;6460;42.684;23.260;2022-11-15T02:55:51;95102.25;;;5.18;100.00
12793;BME280;6460;42.684;23.260;2022-11-15T02:58:50;95114.75;;;5.09;100.00
12793;BME280;6460;42.684;23.260;2022-11-15T03:01:30;95118.44;;;5.30;100.00
12793;BME280;6460;42.684;23.260;2022-11-15T03:04:13;95125.94;;;5.19;100.00
12793;BME280;6460;42.684;23.260;2022-11-15T03:06:50;95117.19;;;5.27;100.00
12793;BME280;6460;42.684;23.260;2022-11-15T03:09:27;95122.50;;;5.27;100.00
12793;BME280;6460;42.684;23.260;2022-11-15T03:12:00;95117.19;;;5.36;100.00
12793;BME280;6460;42.684;23.260;2022-11-15T03:14:34;95105.16;;;5.39;100.00
12793;BME280;6460;42.684;23.260;2022-11-15T03:17:09;95101.41;;;5.48;100.00
12793;BME280;6460;42.684;23.260;2022-11-15T03:19:44;95107.22;;;5.50;100.00
12793;BME280;6460;42.684;23.260;2022-11-15T03:22:15;95104.22;;;5.43;100.00
12793;BME280;6460;42.684;23.260;2022-11-15T03:24:44;95100.63;;;5.48;100.00
12793;BME280;6460;42.684;23.260;2022-11-15T03:27:15;95099.31;;;5.37;100.00
12793;BME280;6460;42.684;23.260;2022-11-15T03:29:46;95102.16;;;5.31;100.00
12793;BME280;6460;42.684;23.260;2022-11-15T03:32:16;95094.78;;;5.28;100.00
12793;BME280;6460;42.684;23.260;2022-11-15T03:34:49;95089.78;;;5.44;100.00
12793;BME280;6460;42.684;23.260;2022-11-15T03:37:21;95094.50;;;5.56;100.00
12793;BME280;6460;42.684;23.260;2022-11-15T03:39:49;95083.06;;;5.55;100.00
12793;BME280;6460;42.684;23.260;2022-11-15T03:42:22;95089.97;;;5.56;100.00
12793;BME280;6460;42.684;23.260;2022-11-15T03:44:55;95084.47;;;5.53;100.00
12793;BME280;6460;42.684;23.260;2022-11-15T03:47:28;95077.72;;;5.47;100.00
12793;BME280;6460;42.684;23.260;2022-11-15T03:50:01;95079.66;;;5.72;100.00
12793;BME280;6460;42.684;23.260;2022-11-15T03:52:32;95075.44;;;5.79;100.00
12793;BME280;6460;42.684;23.260;2022-11-15T03:55:01;95078.72;;;5.85;100.00
12793;BME280;6460;42.684;23.260;2022-11-15T03:57:29;95082.84;;;5.91;100.00
12793;BME280;6460;42.684;23.260;2022-11-15T03:59:57;95068.41;;;5.92;100.00
12793;BME280;6460;42.684;23.260;2022-11-15T04:02:24;95071.22;;;6.04;100.00
12793;BME280;6460;42.684;23.260;2022-11-15T04:04:51;95069.66;;;6.03;100.00
12793;BME280;6460;42.684;23.260;2022-11-15T04:07:20;95069.19;;;6.10;100.00
12793;BME280;6460;42.684;23.260;2022-11-15T04:09:47;95070.25;;;5.83;100.00
12793;BME280;6460;42.684;23.260;2022-11-15T04:12:31;95062.94;;;6.06;100.00
12793;BME280;6460;42.684;23.260;2022-11-15T04:15:00;95064.94;;;6.00;100.00
12793;BME280;6460;42.684;23.260;2022-11-15T04:17:38;95070.28;;;6.00;100.00
12793;BME280;6460;42.684;23.260;2022-11-15T04:20:09;95067.16;;;5.98;100.00
12793;BME280;6460;42.684;23.260;2022-11-15T04:22:57;95063.06;;;5.92;100.00
12793;BME280;6460;42.684;23.260;2022-11-15T04:25:42;95068.09;;;6.02;100.00
12793;BME280;6460;42.684;23.260;2022-11-15T04:28:11;95066.69;;;5.96;100.00
12793;BME280;6460;42.684;23.260;2022-11-15T04:30:38;95069.19;;;6.01;100.00
12793;BME280;6460;42.684;23.260;2022-11-15T04:33:06;95056.78;;;5.88;100.00
12793;BME280;6460;42.684;23.260;2022-11-15T04:35:33;95056.59;;;5.84;100.00
12793;BME280;6460;42.684;23.260;2022-11-15T04:38:02;95063.69;;;5.89;100.00
12793;BME280;6460;42.684;23.260;2022-11-15T04:40:29;95063.81;;;5.84;100.00
12793;BME280;6460;42.684;23.260;2022-11-15T04:42:57;95065.28;;;5.90;100.00
12793;BME280;6460;42.684;23.260;2022-11-15T04:45:24;95066.38;;;5.89;100.00
12793;BME280;6460;42.684;23.260;2022-11-15T04:47:51;95066.03;;;5.91;100.00
12793;BME280;6460;42.684;23.260;2022-11-15T04:50:18;95061.94;;;5.84;100.00
12793;BME280;6460;42.684;23.260;2022-11-15T04:52:51;95068.56;;;5.87;100.00
12793;BME280;6460;42.684;23.260;2022-11-15T04:55:20;95063.38;;;5.91;100.00
12793;BME280;6460;42.684;23.260;2022-11-15T04:57:48;95060.06;;;5.94;100.00
12793;BME280;6460;42.684;23.260;2022-11-15T05:00:23;95065.28;;;5.90;100.00
12793;BME280;6460;42.684;23.260;2022-11-15T05:02:50;95070.09;;;5.79;100.00
12793;BME280;6460;42.684;23.260;2022-11-15T05:05:35;95066.31;;;5.72;100.00
12793;BME280;6460;42.684;23.260;2022-11-15T05:08:02;95070.09;;;5.71;100.00
12793;BME280;6460;42.684;23.260;2022-11-15T05:10:31;95070.41;;;5.69;100.00
12793;BME280;6460;42.684;23.260;2022-11-15T05:12:58;95065.81;;;5.53;100.00
12793;BME280;6460;42.684;23.260;2022-11-15T05:15:25;95070.22;;;5.66;100.00
12793;BME280;6460;42.684;23.260;2022-11-15T05:17:57;95064.09;;;5.65;100.00
12793;BME280;6460;42.684;23.260;2022-11-15T05:20:24;95059.84;;;5.56;100.00
12793;BME280;6460;42.684;23.260;2022-11-15T05:22:52;95060.97;;;5.72;100.00
12793;BME280;6460;42.684;23.260;2022-11-15T05:25:20;95045.47;;;5.74;100.00
12793;BME280;6460;42.684;23.260;2022-11-15T05:30:24;95042.03;;;5.73;100.00
12793;BME280;6460;42.684;23.260;2022-11-15T05:32:51;95053.78;;;5.81;100.00
12793;BME280;6460;42.684;23.260;2022-11-15T05:37:55;95052.06;;;5.68;100.00
12793;BME280;6460;42.684;23.260;2022-11-15T05:40:23;95052.97;;;5.72;100.00
12793;BME280;6460;42.684;23.260;2022-11-15T05:42:51;95050.00;;;5.56;100.00
12793;BME280;6460;42.684;23.260;2022-11-15T05:45:20;95063.63;;;5.55;100.00
12793;BME280;6460;42.684;23.260;2022-11-15T05:47:49;95055.03;;;5.58;100.00
12793;BME280;6460;42.684;23.260;2022-11-15T05:50:18;95053.28;;;5.62;100.00
12793;BME280;6460;42.684;23.260;2022-11-15T05:52:46;95063.19;;;5.61;100.00
12793;BME280;6460;42.684;23.260;2022-11-15T05:55:14;95061.59;;;5.69;100.00
12793;BME280;6460;42.684;23.260;2022-11-15T05:57:42;95068.97;;;5.55;100.00
12793;BME280;6460;42.684;23.260;2022-11-15T06:00:11;95060.34;;;5.58;100.00
12793;BME280;6460;42.684;23.260;2022-11-15T06:02:38;95063.31;;;5.48;100.00
12793;BME280;6460;42.684;23.260;2022-11-15T06:05:07;95066.28;;;5.46;100.00
12793;BME280;6460;42.684;23.260;2022-11-15T06:07:35;95064.84;;;5.40;100.00
12793;BME280;6460;42.684;23.260;2022-11-15T06:10:07;95079.19;;;5.70;100.00
12793;BME280;6460;42.684;23.260;2022-11-15T06:12:34;95068.66;;;5.65;100.00
12793;BME280;6460;42.684;23.260;2022-11-15T06:15:02;95071.66;;;5.72;100.00
12793;BME280;6460;42.684;23.260;2022-11-15T06:17:30;95057.41;;;5.68;100.00
12793;BME280;6460;42.684;23.260;2022-11-15T06:19:59;95063.31;;;5.65;100.00
12793;BME280;6460;42.684;23.260;2022-11-15T06:22:27;95074.00;;;5.65;100.00
12793;BME280;6460;42.684;23.260;2022-11-15T06:27:30;95070.22;;;5.74;100.00
12793;BME280;6460;42.684;23.260;2022-11-15T06:30:00;95068.22;;;5.80;100.00
12793;BME280;6460;42.684;23.260;2022-11-15T06:32:29;95051.09;;;5.81;100.00
12793;BME280;6460;42.684;23.260;2022-11-15T06:34:57;95060.88;;;5.85;100.00
12793;BME280;6460;42.684;23.260;2022-11-15T06:37:24;95064.34;;;5.86;100.00
12793;BME280;6460;42.684;23.260;2022-11-15T06:39:53;95056.28;;;5.69;100.00
12793;BME280;6460;42.684;23.260;2022-11-15T06:42:20;95064.03;;;5.96;100.00
12793;BME280;6460;42.684;23.260;2022-11-15T06:44:48;95060.88;;;5.94;100.00
12793;BME280;6460;42.684;23.260;2022-11-15T06:47:15;95059.31;;;5.93;100.00
12793;BME280;6460;42.684;23.260;2022-11-15T06:49:42;95055.06;;;5.92;100.00
12793;BME280;6460;42.684;23.260;2022-11-15T06:52:10;95057.75;;;5.92;100.00
12793;BME280;6460;42.684;23.260;2022-11-15T06:54:37;95064.94;;;6.00;100.00
12793;BME280;6460;42.684;23.260;2022-11-15T06:57:06;95057.72;;;6.01;100.00
12793;BME280;6460;42.684;23.260;2022-11-15T06:59:33;95053.50;;;6.00;100.00
12793;BME280;6460;42.684;23.260;2022-11-15T07:02:00;95060.25;;;5.97;100.00
12793;BME280;6460;42.684;23.260;2022-11-15T07:04:28;95062.59;;;5.99;100.00
12793;BME280;6460;42.684;23.260;2022-11-15T07:06:55;95058.69;;;5.96;100.00
12793;BME280;6460;42.684;23.260;2022-11-15T07:09:22;95062.44;;;5.95;100.00
12793;BME280;6460;42.684;23.260;2022-11-15T07:11:49;95048.66;;;5.93;100.00
12793;BME280;6460;42.684;23.260;2022-11-15T07:14:18;95053.34;;;5.96;100.00
12793;BME280;6460;42.684;23.260;2022-11-15T07:16:45;95051.59;;;6.00;100.00
12793;BME280;6460;42.684;23.260;2022-11-15T07:19:12;95052.41;;;5.92;100.00
12793;BME280;6460;42.684;23.260;2022-11-15T07:24:15;95059.47;;;5.88;100.00
12793;BME280;6460;42.684;23.260;2022-11-15T07:26:42;95056.00;;;5.88;100.00
12793;BME280;6460;42.684;23.260;2022-11-15T07:29:09;95067.78;;;5.87;100.00
12793;BME280;6460;42.684;23.260;2022-11-15T07:31:38;95055.34;;;5.82;100.00
12793;BME280;6460;42.684;23.260;2022-11-15T07:34:05;95058.34;;;5.80;100.00
12793;BME280;6460;42.684;23.260;2022-11-15T07:36:32;95050.00;;;5.82;100.00
12793;BME280;6460;42.684;23.260;2022-11-15T07:39:00;95057.38;;;5.85;100.00
12793;BME280;6460;42.684;23.260;2022-11-15T07:41:28;95057.09;;;5.95;100.00
12793;BME280;6460;42.684;23.260;2022-11-15T07:43:56;95063.38;;;6.08;100.00
12793;BME280;6460;42.684;23.260;2022-11-15T07:51:34;95056.50;;;6.15;100.00
12793;BME280;6460;42.684;23.260;2022-11-15T07:56:37;95049.06;;;6.29;100.00
12793;BME280;6460;42.684;23.260;2022-11-15T08:09:28;95051.72;;;6.47;100.00
12793;BME280;6460;42.684;23.260;2022-11-15T08:14:31;95040.91;;;6.43;100.00
12793;BME280;6460;42.684;23.260;2022-11-15T08:22:08;95049.25;;;6.24;100.00
12793;BME280;6460;42.684;23.260;2022-11-15T08:24:37;95034.47;;;6.35;100.00
12793;BME280;6460;42.684;23.260;2022-11-15T08:27:05;95038.06;;;6.39;100.00
12793;BME280;6460;42.684;23.260;2022-11-15T08:29:42;95045.13;;;6.53;100.00
12793;BME280;6460;42.684;23.260;2022-11-15T08:42:31;95024.66;;;6.65;100.00
12793;BME280;6460;42.684;23.260;2022-11-15T09:39:25;94970.28;;;7.28;100.00
12793;BME280;6460;42.684;23.260;2022-11-15T09:49:38;94958.72;;;7.66;100.00
12793;BME280;6460;42.684;23.260;2022-11-15T10:05:09;94927.81;;;7.89;100.00
12793;BME280;6460;42.684;23.260;2022-11-15T10:10:48;94917.81;;;8.31;100.00
12793;BME280;6460;42.684;23.260;2022-11-15T10:15:53;94917.41;;;8.89;100.00
12793;BME280;6460;42.684;23.260;2022-11-15T10:18:28;94910.41;;;9.37;100.00
12793;BME280;6460;42.684;23.260;2022-11-15T10:26:15;94910.38;;;9.89;100.00
12793;BME280;6460;42.684;23.260;2022-11-15T10:31:23;94894.28;;;10.32;100.00
12793;BME280;6460;42.684;23.260;2022-11-15T11:49:10;94760.66;;;14.00;67.75
12793;BME280;6460;42.684;23.260;2022-11-15T12:25:53;94695.44;;;15.31;63.16
12793;BME280;6460;42.684;23.260;2022-11-15T12:49:09;94676.91;;;14.54;66.04
12793;BME280;6460;42.684;23.260;2022-11-15T13:12:54;94654.53;;;14.57;64.64
12793;BME280;6460;42.684;23.260;2022-11-15T13:20:37;94644.38;;;14.40;65.97
12793;BME280;6460;42.684;23.260;2022-11-15T13:41:19;94641.00;;;14.03;66.89
12793;BME280;6460;42.684;23.260;2022-11-15T13:59:26;94635.50;;;13.08;70.97
12793;BME280;6460;42.684;23.260;2022-11-15T14:01:55;94627.66;;;12.99;71.34
12793;BME280;6460;42.684;23.260;2022-11-15T14:53:32;94629.13;;;9.20;89.04
12793;BME280;6460;42.684;23.260;2022-11-15T14:58:35;94618.50;;;9.23;89.51
12793;BME280;6460;42.684;23.260;2022-11-15T15:01:05;94630.41;;;9.10;90.49
12793;BME280;6460;42.684;23.260;2022-11-15T15:03:37;94633.16;;;8.98;90.75
12793;BME280;6460;42.684;23.260;2022-11-15T15:06:04;94631.66;;;8.85;91.61
12793;BME280;6460;42.684;23.260;2022-11-15T15:11:10;94624.50;;;8.89;92.95
12793;BME280;6460;42.684;23.260;2022-11-15T15:13:40;94624.94;;;8.91;92.11
12793;BME280;6460;42.684;23.260;2022-11-15T15:16:07;94620.03;;;8.93;92.69
12793;BME280;6460;42.684;23.260;2022-11-15T15:18:34;94618.34;;;8.88;91.70
12793;BME280;6460;42.684;23.260;2022-11-15T15:21:02;94618.19;;;8.97;92.16
12793;BME280;6460;42.684;23.260;2022-11-15T15:23:32;94614.13;;;9.03;91.74
12793;BME280;6460;42.684;23.260;2022-11-15T15:26:00;94616.78;;;8.87;92.58
12793;BME280;6460;42.684;23.260;2022-11-15T15:28:29;94607.94;;;8.99;93.25
12793;BME280;6460;42.684;23.260;2022-11-15T15:30:56;94604.47;;;9.14;92.09
12793;BME280;6460;42.684;23.260;2022-11-15T15:33:23;94601.53;;;9.19;91.97
12793;BME280;6460;42.684;23.260;2022-11-15T15:35:50;94597.91;;;9.27;91.80
12793;BME280;6460;42.684;23.260;2022-11-15T15:38:17;94607.72;;;8.92;92.28
12793;BME280;6460;42.684;23.260;2022-11-15T15:40:44;94603.72;;;8.70;93.65
12793;BME280;6460;42.684;23.260;2022-11-15T15:43:10;94602.81;;;9.10;92.37
12793;BME280;6460;42.684;23.260;2022-11-15T15:45:40;94606.72;;;9.12;92.43
12793;BME280;6460;42.684;23.260;2022-11-15T15:48:10;94598.00;;;9.31;91.87
12793;BME280;6460;42.684;23.260;2022-11-15T15:53:13;94596.34;;;9.26;90.04
12793;BME280;6460;42.684;23.260;2022-11-15T15:55:40;94592.38;;;9.20;90.70
12793;BME280;6460;42.684;23.260;2022-11-15T15:58:07;94592.63;;;9.31;90.99
12793;BME280;6460;42.684;23.260;2022-11-15T16:00:37;94600.50;;;9.39;89.88
12793;BME280;6460;42.684;23.260;2022-11-15T16:03:05;94600.00;;;9.34;89.32
12793;BME280;6460;42.684;23.260;2022-11-15T16:05:32;94594.63;;;9.34;90.46
12793;BME280;6460;42.684;23.260;2022-11-15T16:07:59;94597.56;;;9.44;88.97
12793;BME280;6460;42.684;23.260;2022-11-15T16:10:28;94597.81;;;9.39;88.45
12793;BME280;6460;42.684;23.260;2022-11-15T16:12:56;94606.38;;;9.29;89.33
12793;BME280;6460;42.684;23.260;2022-11-15T16:15:25;94613.72;;;9.32;89.52
12793;BME280;6460;42.684;23.260;2022-11-15T16:17:54;94612.63;;;9.33;89.20
12793;BME280;6460;42.684;23.260;2022-11-15T16:20:29;94607.16;;;9.30;89.38
12793;BME280;6460;42.684;23.260;2022-11-15T16:22:57;94602.50;;;9.27;89.67
12793;BME280;6460;42.684;23.260;2022-11-15T16:35:46;94620.78;;;8.93;92.12
12793;BME280;6460;42.684;23.260;2022-11-15T16:38:15;94612.53;;;8.71;91.15
12793;BME280;6460;42.684;23.260;2022-11-15T16:40:42;94604.94;;;8.73;92.50
12793;BME280;6460;42.684;23.260;2022-11-15T16:43:09;94609.00;;;8.82;91.65
12793;BME280;6460;42.684;23.260;2022-11-15T16:45:36;94602.88;;;8.82;92.11
12793;BME280;6460;42.684;23.260;2022-11-15T17:11:57;94578.31;;;8.80;91.77
12793;BME280;6460;42.684;23.260;2022-11-15T17:40:18;94569.88;;;8.50;92.03
12793;BME280;6460;42.684;23.260;2022-11-15T17:42:45;94574.50;;;8.37;93.11
12793;BME280;6460;42.684;23.260;2022-11-15T17:53:20;94575.28;;;7.86;95.44
12793;BME280;6460;42.684;23.260;2022-11-15T18:15:48;94560.19;;;7.29;100.00
12793;BME280;6460;42.684;23.260;2022-11-15T18:37:24;94546.06;;;7.17;100.00
12793;BME280;6460;42.684;23.260;2022-11-15T18:39:51;94547.28;;;7.07;100.00
12793;BME280;6460;42.684;23.260;2022-11-15T18:47:29;94541.81;;;7.28;100.00
12793;BME280;6460;42.684;23.260;2022-11-15T19:05:28;94519.00;;;7.06;100.00
12793;BME280;6460;42.684;23.260;2022-11-15T19:07:55;94518.75;;;6.99;100.00
12793;BME280;6460;42.684;23.260;2022-11-15T19:21:29;94520.31;;;7.24;100.00
12793;BME280;6460;42.684;23.260;2022-11-15T19:23:57;94512.75;;;7.26;100.00
12793;BME280;6460;42.684;23.260;2022-11-15T19:34:10;94510.06;;;7.38;100.00
12793;BME280;6460;42.684;23.260;2022-11-15T19:41:49;94499.84;;;7.16;100.00
12793;BME280;6460;42.684;23.260;2022-11-15T19:44:16;94502.06;;;7.02;100.00
12793;BME280;6460;42.684;23.260;2022-11-15T19:54:29;94522.88;;;7.33;97.02
12793;BME280;6460;42.684;23.260;2022-11-15T19:56:57;94521.88;;;7.25;96.97
12793;BME280;6460;42.684;23.260;2022-11-15T20:27:58;94529.81;;;6.41;100.00
